Time;durP1;ratioP1;P1;durP2;ratioP2;P2;SDS_P1;SDS_P2;PMS_P1;PMS_P2;Temp;Humidity;BMP_temperature;BMP_pressure;BME280_temperature;BME280_humidity;BME280_pressure;Samples;Min_cycle;Max_cycle;Signal;HPM_P1;HPM_P2
2024/04/19 00:00:53;;;;;;;6.70;2.40;;;7.90;99.90;;;;;;5240251;27;20234;-69
2024/04/19 00:03:20;;;;;;;4.53;2.43;;;7.80;99.90;;;;;;5251141;27;20595;-70
2024/04/19 00:05:45;;;;;;;3.83;2.30;;;7.90;99.90;;;;;;5223153;27;20476;-71
2024/04/19 00:08:29;;;;;;;3.70;2.57;;;7.90;99.90;;;;;;5252633;27;20541;-69
2024/04/19 00:10:55;;;;;;;2.37;2.17;;;7.90;99.90;;;;;;5250873;27;20759;-69
2024/04/19 00:13:22;;;;;;;4.60;2.97;;;7.90;99.90;;;;;;5283500;27;20220;-69
2024/04/19 00:15:47;;;;;;;3.00;2.37;;;7.90;99.90;;;;;;5200525;27;20241;-70
2024/04/19 00:18:13;;;;;;;8.70;3.87;;;7.90;99.90;;;;;;5217695;27;20542;-68
2024/04/19 00:20:39;;;;;;;4.70;3.80;;;8.00;99.90;;;;;;5218178;27;20469;-68
2024/04/19 00:23:08;;;;;;;4.93;2.83;;;8.00;99.90;;;;;;5218440;27;20267;-70
2024/04/19 00:25:35;;;;;;;4.93;3.53;;;8.00;99.90;;;;;;5250375;27;20884;-70
2024/04/19 00:28:00;;;;;;;4.53;2.80;;;8.00;99.90;;;;;;5245285;27;20296;-69
2024/04/19 00:30:26;;;;;;;4.83;3.13;;;8.00;99.90;;;;;;5226002;27;20462;-68
2024/04/19 00:32:51;;;;;;;6.13;4.10;;;8.10;99.90;;;;;;5215757;27;20272;-68
2024/04/19 00:35:19;;;;;;;5.90;4.37;;;8.00;99.90;;;;;;5221582;27;20236;-71
2024/04/19 00:37:45;;;;;;;5.77;3.40;;;8.10;99.90;;;;;;5250950;27;20232;-69
2024/04/19 00:40:31;;;;;;;4.90;4.27;;;8.10;99.90;;;;;;5252055;27;20565;-68
2024/04/19 00:42:58;;;;;;;6.30;3.63;;;8.00;99.90;;;;;;5229396;27;20480;-72
2024/04/19 00:45:34;;;;;;;5.83;3.50;;;8.10;99.90;;;;;;5230070;27;20458;-71
2024/04/19 00:48:12;;;;;;;7.60;4.50;;;8.10;99.90;;;;;;5185787;27;20477;-69
2024/04/19 00:50:58;;;;;;;6.50;4.23;;;8.10;99.90;;;;;;5212948;27;20877;-67
2024/04/19 00:53:30;;;;;;;6.20;4.47;;;8.10;99.90;;;;;;5212971;27;20509;-69
2024/04/19 00:55:59;;;;;;;6.53;3.90;;;8.10;99.90;;;;;;5192486;27;20528;-70
2024/04/19 00:58:26;;;;;;;6.03;3.90;;;8.10;99.90;;;;;;5223607;27;20464;-68
2024/04/19 01:00:52;;;;;;;5.83;4.37;;;8.10;99.90;;;;;;5200145;27;20467;-67
2024/04/19 01:03:18;;;;;;;7.70;4.47;;;8.00;99.90;;;;;;5208786;27;20518;-68
2024/04/19 01:05:43;;;;;;;6.00;4.10;;;8.00;99.90;;;;;;5178187;27;20467;-68
2024/04/19 01:08:28;;;;;;;3.90;3.40;;;8.00;99.90;;;;;;5212617;27;20289;-68
2024/04/19 01:10:54;;;;;;;5.67;4.57;;;7.90;99.90;;;;;;5231331;27;20547;-68
2024/04/19 01:13:20;;;;;;;11.83;4.70;;;7.90;99.90;;;;;;5247875;27;20596;-68
2024/04/19 01:15:47;;;;;;;6.60;5.00;;;7.80;99.90;;;;;;5214129;27;20290;-69
2024/04/19 01:18:13;;;;;;;5.60;4.40;;;7.60;99.90;;;;;;5227442;27;20633;-69
2024/04/19 01:20:39;;;;;;;6.47;4.50;;;7.50;99.90;;;;;;5242250;27;20513;-70
2024/04/19 01:23:05;;;;;;;7.60;5.20;;;7.30;99.90;;;;;;5216782;27;20225;-68
2024/04/19 01:25:37;;;;;;;5.37;4.43;;;7.30;99.90;;;;;;5189466;27;20641;-69
2024/04/19 01:28:07;;;;;;;6.90;5.67;;;7.20;99.90;;;;;;5158481;27;20737;-69
2024/04/19 01:30:34;;;;;;;6.20;5.30;;;7.10;99.90;;;;;;5202861;27;20470;-69
2024/04/19 01:32:59;;;;;;;8.30;6.27;;;7.10;99.90;;;;;;5162458;27;20471;-68
2024/04/19 01:35:25;;;;;;;8.00;5.33;;;7.00;99.90;;;;;;5182879;27;20564;-68
2024/04/19 01:37:51;;;;;;;4.70;4.30;;;7.00;99.90;;;;;;5212383;27;20445;-69
2024/04/19 01:40:16;;;;;;;4.80;4.30;;;7.00;99.90;;;;;;5212208;27;20677;-68
2024/04/19 01:42:42;;;;;;;5.47;3.67;;;7.00;99.90;;;;;;5226695;27;20575;-68
2024/04/19 01:45:07;;;;;;;6.60;4.10;;;7.00;99.90;;;;;;5213381;27;20226;-69
2024/04/19 01:47:33;;;;;;;7.03;4.43;;;7.00;99.90;;;;;;5197136;27;20235;-68
2024/04/19 01:49:58;;;;;;;7.53;5.63;;;7.00;99.90;;;;;;5228895;27;20552;-68
2024/04/19 01:52:24;;;;;;;6.37;4.97;;;6.90;99.90;;;;;;5215112;27;20233;-68
2024/04/19 01:54:49;;;;;;;7.67;6.50;;;6.90;99.90;;;;;;5215340;27;20213;-68
2024/04/19 01:57:15;;;;;;;7.27;6.00;;;6.80;99.90;;;;;;5221594;27;20333;-70
2024/04/19 01:59:41;;;;;;;8.13;6.30;;;6.70;99.90;;;;;;5213985;27;20226;-68
2024/04/19 02:02:06;;;;;;;13.90;7.13;;;6.70;99.90;;;;;;5198159;27;20226;-69
2024/04/19 02:04:32;;;;;;;11.30;8.07;;;6.60;99.90;;;;;;5224660;27;20225;-69
2024/04/19 02:06:58;;;;;;;8.63;7.10;;;6.60;99.90;;;;;;5255270;27;20367;-68
2024/04/19 02:09:34;;;;;;;9.63;7.00;;;6.60;99.90;;;;;;5248371;27;20588;-69
2024/04/19 02:12:00;;;;;;;7.80;6.20;;;6.40;99.90;;;;;;5215122;27;20566;-67
2024/04/19 02:14:26;;;;;;;6.03;5.43;;;6.40;99.90;;;;;;5214307;27;20481;-68
2024/04/19 02:16:52;;;;;;;8.97;6.33;;;6.30;99.90;;;;;;5213905;27;20626;-68
2024/04/19 02:19:17;;;;;;;7.07;6.37;;;6.20;99.90;;;;;;5214335;27;20261;-69
2024/04/19 02:21:43;;;;;;;8.93;6.03;;;6.20;99.90;;;;;;5214969;27;20688;-68
2024/04/19 02:24:08;;;;;;;10.30;6.80;;;6.20;99.90;;;;;;5215044;27;20214;-68
2024/04/19 02:26:34;;;;;;;9.30;8.37;;;6.10;99.90;;;;;;5222594;27;20311;-68
2024/04/19 02:31:45;;;;;;;12.07;8.20;;;6.20;99.90;;;;;;5213689;27;20793;-68
2024/04/19 02:34:10;;;;;;;9.10;7.70;;;6.10;99.90;;;;;;5213887;27;20442;-68
2024/04/19 02:36:36;;;;;;;8.63;7.73;;;6.10;99.90;;;;;;5214323;27;20264;-68
2024/04/19 02:39:01;;;;;;;8.30;7.37;;;6.10;99.90;;;;;;5215024;27;20222;-68
2024/04/19 02:41:27;;;;;;;8.00;7.20;;;6.10;99.90;;;;;;5220072;27;20305;-70
2024/04/19 02:43:53;;;;;;;8.40;7.40;;;6.00;99.90;;;;;;5230319;27;20257;-68
2024/04/19 02:46:18;;;;;;;8.57;6.80;;;5.90;99.90;;;;;;5208657;27;20234;-67
2024/04/19 02:48:45;;;;;;;8.37;6.77;;;6.10;99.90;;;;;;5184846;27;20222;-68
2024/04/19 02:51:11;;;;;;;8.70;6.37;;;6.10;99.90;;;;;;5213817;27;20444;-68
2024/04/19 02:53:37;;;;;;;7.20;5.97;;;6.00;99.90;;;;;;5213567;27;20465;-69
2024/04/19 02:56:03;;;;;;;6.33;5.60;;;6.00;99.90;;;;;;5211715;27;20630;-68
2024/04/19 02:58:29;;;;;;;6.20;5.60;;;6.10;99.90;;;;;;5213475;27;20227;-68
2024/04/19 03:00:54;;;;;;;6.00;5.40;;;5.90;99.90;;;;;;5205161;27;20521;-68
2024/04/19 03:03:20;;;;;;;7.03;5.50;;;5.90;99.90;;;;;;5213774;27;20222;-69
2024/04/19 03:05:46;;;;;;;7.00;5.47;;;5.90;99.90;;;;;;5213017;27;20334;-68
2024/04/19 03:08:12;;;;;;;6.60;4.90;;;5.90;99.90;;;;;;5213097;27;20537;-69
2024/04/19 03:10:39;;;;;;;6.47;5.10;;;6.00;99.90;;;;;;5213912;27;20889;-68
2024/04/19 03:13:08;;;;;;;8.60;5.50;;;6.00;99.90;;;;;;5209811;27;20226;-67
2024/04/19 03:15:34;;;;;;;6.33;5.10;;;5.90;99.90;;;;;;5210806;27;20482;-68
2024/04/19 03:17:59;;;;;;;5.00;4.40;;;6.00;99.90;;;;;;5213722;27;20512;-69
2024/04/19 03:20:25;;;;;;;6.50;5.17;;;5.90;99.90;;;;;;5185525;27;20358;-69
2024/04/19 03:22:51;;;;;;;6.10;5.10;;;5.90;99.90;;;;;;5201645;27;20311;-68
2024/04/19 03:25:16;;;;;;;6.47;5.37;;;5.80;99.90;;;;;;5159449;27;20625;-67
2024/04/19 03:27:42;;;;;;;7.03;5.40;;;5.90;99.90;;;;;;5184977;27;20231;-69
2024/04/19 03:30:08;;;;;;;7.93;5.37;;;5.90;99.90;;;;;;5202009;27;20589;-69
2024/04/19 03:32:33;;;;;;;8.20;6.30;;;5.80;99.90;;;;;;5213414;27;20222;-68
2024/04/19 03:34:59;;;;;;;10.30;7.13;;;5.80;99.90;;;;;;5213003;27;20511;-68
2024/04/19 03:37:25;;;;;;;9.67;6.20;;;5.90;99.90;;;;;;5189062;27;20547;-70
2024/04/19 03:39:50;;;;;;;6.77;4.97;;;5.90;99.90;;;;;;5193046;27;20512;-69
2024/04/19 03:42:20;;;;;;;7.07;5.20;;;5.90;99.90;;;;;;5211692;27;20241;-70
2024/04/19 03:47:30;;;;;;;5.50;4.90;;;5.80;99.90;;;;;;5179918;27;20467;-68
2024/04/19 03:49:55;;;;;;;6.43;5.23;;;5.90;99.90;;;;;;5197038;27;20522;-69
2024/04/19 03:52:21;;;;;;;7.57;5.37;;;5.80;99.90;;;;;;5212536;27;20302;-69
2024/04/19 03:54:46;;;;;;;9.27;5.30;;;5.80;99.90;;;;;;5183284;27;20297;-69
2024/04/19 03:57:12;;;;;;;8.23;5.33;;;5.80;99.90;;;;;;5204394;27;20345;-69
2024/04/19 03:59:41;;;;;;;9.93;5.57;;;5.80;99.90;;;;;;5212903;27;20619;-68
2024/04/19 04:02:12;;;;;;;6.00;4.53;;;5.80;99.90;;;;;;5214757;27;20605;-69
2024/04/19 04:04:52;;;;;;;6.47;4.90;;;5.70;99.90;;;;;;5201519;27;20477;-69
2024/04/19 04:07:18;;;;;;;5.93;5.00;;;5.80;99.90;;;;;;5217631;27;20587;-70
2024/04/19 04:09:44;;;;;;;5.23;4.00;;;5.80;99.90;;;;;;5202792;27;20527;-70
2024/04/19 04:12:09;;;;;;;7.10;5.00;;;5.80;99.90;;;;;;5199884;27;20551;-70
2024/04/19 04:14:36;;;;;;;6.07;4.40;;;5.70;99.90;;;;;;5227503;27;20244;-70
2024/04/19 04:17:01;;;;;;;6.57;4.23;;;5.70;99.90;;;;;;5252020;27;20271;-68
2024/04/19 04:19:27;;;;;;;5.83;3.50;;;5.60;99.90;;;;;;5209937;27;20476;-69
2024/04/19 04:21:53;;;;;;;6.20;4.50;;;5.60;99.90;;;;;;5249828;27;20300;-69
2024/04/19 04:24:18;;;;;;;4.80;3.50;;;5.70;99.90;;;;;;5228846;27;20314;-69
2024/04/19 04:26:44;;;;;;;6.73;3.77;;;5.70;99.90;;;;;;5226105;27;20276;-70
2024/04/19 04:29:09;;;;;;;4.57;3.20;;;5.60;99.90;;;;;;5250578;27;20221;-69
2024/04/19 04:31:35;;;;;;;5.07;3.37;;;5.60;99.90;;;;;;5233852;27;20276;-70
2024/04/19 04:34:01;;;;;;;6.57;3.90;;;5.60;99.90;;;;;;5221139;27;20218;-70
2024/04/19 04:36:26;;;;;;;5.20;3.30;;;5.50;99.90;;;;;;5217202;27;20226;-69
2024/04/19 04:38:52;;;;;;;3.67;2.60;;;5.60;99.90;;;;;;5217030;27;20570;-69
2024/04/19 04:41:18;;;;;;;3.67;2.73;;;5.40;99.90;;;;;;5249356;27;20208;-68
2024/04/19 04:43:43;;;;;;;4.00;2.90;;;5.60;99.90;;;;;;5250904;27;20650;-69
2024/04/19 04:46:09;;;;;;;4.47;2.80;;;5.50;99.90;;;;;;5255458;27;20472;-73
2024/04/19 04:48:35;;;;;;;4.30;2.37;;;5.40;99.90;;;;;;5194417;27;20226;-68
2024/04/19 04:51:01;;;;;;;5.47;2.73;;;5.40;99.90;;;;;;5241381;27;20233;-69
2024/04/19 04:53:27;;;;;;;4.37;2.40;;;5.40;99.90;;;;;;5230487;27;20328;-72
2024/04/19 04:55:53;;;;;;;3.90;2.10;;;5.40;99.90;;;;;;5218236;27;20442;-70
2024/04/19 04:58:19;;;;;;;2.80;1.87;;;5.50;99.90;;;;;;5248749;27;20315;-71
2024/04/19 05:00:47;;;;;;;2.97;1.90;;;5.50;99.90;;;;;;5252210;27;20531;-70
2024/04/19 05:03:12;;;;;;;2.90;2.07;;;5.30;99.90;;;;;;5224683;27;20491;-70
2024/04/19 05:05:38;;;;;;;3.03;2.10;;;5.30;99.90;;;;;;5250053;27;20531;-69
2024/04/19 05:08:04;;;;;;;3.07;1.87;;;5.40;99.90;;;;;;5238399;27;20235;-72
2024/04/19 05:10:29;;;;;;;2.87;1.67;;;5.40;99.90;;;;;;5250916;27;20225;-70
2024/04/19 05:12:56;;;;;;;4.80;2.27;;;5.30;99.90;;;;;;5221734;27;20220;-71
2024/04/19 05:15:22;;;;;;;2.73;1.50;;;5.40;99.90;;;;;;5243231;27;20473;-70
2024/04/19 05:17:48;;;;;;;2.77;1.73;;;5.40;99.90;;;;;;5223466;27;20585;-69
2024/04/19 05:20:13;;;;;;;2.57;1.63;;;5.40;99.90;;;;;;5242475;27;20269;-71
2024/04/19 05:22:39;;;;;;;5.33;2.00;;;5.40;99.90;;;;;;5196128;27;20282;-69
2024/04/19 05:25:06;;;;;;;3.60;2.00;;;5.40;99.90;;;;;;5216196;27;20441;-71
2024/04/19 05:27:31;;;;;;;6.17;1.83;;;5.40;99.90;;;;;;5232092;27;20741;-71
2024/04/19 05:29:57;;;;;;;4.13;2.03;;;5.30;99.90;;;;;;5216715;27;20481;-74
2024/04/19 05:32:23;;;;;;;4.27;1.73;;;5.30;99.90;;;;;;5204048;27;20264;-72
2024/04/19 05:34:48;;;;;;;3.40;1.70;;;5.30;99.90;;;;;;5253242;27;20221;-73
2024/04/19 05:37:14;;;;;;;2.03;1.37;;;5.40;99.90;;;;;;5225877;27;20245;-71
2024/04/19 05:39:39;;;;;;;3.20;1.70;;;5.30;99.90;;;;;;5244523;27;20224;-71
2024/04/19 05:42:05;;;;;;;2.33;1.30;;;5.30;99.90;;;;;;5252325;27;20225;-75
2024/04/19 05:44:31;;;;;;;2.83;1.40;;;5.40;99.90;;;;;;5222645;27;20236;-74
2024/04/19 05:47:00;;;;;;;2.40;1.53;;;5.40;99.90;;;;;;5250571;27;20233;-68
2024/04/19 05:49:27;;;;;;;1.70;1.03;;;5.40;99.90;;;;;;5228828;27;20696;-70
2024/04/19 05:51:52;;;;;;;2.77;1.23;;;5.40;99.90;;;;;;5251461;27;20512;-72
2024/04/19 05:54:18;;;;;;;2.30;1.40;;;5.30;99.90;;;;;;5251113;27;20464;-73
2024/04/19 05:56:44;;;;;;;2.03;1.30;;;5.20;99.90;;;;;;5223395;27;20276;-70
2024/04/19 05:59:10;;;;;;;2.80;1.60;;;5.40;99.90;;;;;;5252188;27;20221;-70
2024/04/19 06:01:35;;;;;;;3.70;1.60;;;5.30;99.90;;;;;;5253759;27;20460;-71
2024/04/19 06:04:01;;;;;;;2.50;1.50;;;5.40;99.90;;;;;;5251239;27;20773;-73
2024/04/19 06:06:27;;;;;;;3.10;1.13;;;5.30;99.90;;;;;;5219219;27;20230;-70
2024/04/19 06:08:52;;;;;;;2.00;1.30;;;5.40;99.90;;;;;;5229030;27;20225;-72
2024/04/19 06:11:18;;;;;;;3.50;1.67;;;5.40;99.90;;;;;;5252338;27;20219;-71
2024/04/19 06:13:47;;;;;;;2.40;1.30;;;5.50;99.90;;;;;;5250897;27;20309;-72
2024/04/19 06:16:13;;;;;;;1.83;1.20;;;5.50;99.90;;;;;;5252092;27;20284;-71
2024/04/19 06:18:39;;;;;;;2.13;1.30;;;5.60;99.90;;;;;;5240788;27;20470;-74
2024/04/19 06:21:05;;;;;;;2.00;1.20;;;5.70;99.90;;;;;;5206500;27;20472;-72
2024/04/19 06:23:30;;;;;;;1.63;1.07;;;5.60;99.90;;;;;;5251307;27;20457;-71
2024/04/19 06:26:02;;;;;;;1.20;0.67;;;5.60;99.90;;;;;;5222798;27;20213;-71
2024/04/19 06:28:30;;;;;;;1.20;0.90;;;5.60;99.90;;;;;;5201581;27;20252;-71
2024/04/19 06:31:05;;;;;;;1.53;1.17;;;5.60;99.90;;;;;;5248843;27;20476;-69
2024/04/19 06:33:30;;;;;;;1.50;0.90;;;5.70;99.90;;;;;;5250456;27;20712;-70
2024/04/19 06:35:58;;;;;;;1.10;1.00;;;5.80;99.90;;;;;;5249582;27;20605;-71
2024/04/19 06:38:23;;;;;;;1.77;1.10;;;5.80;99.90;;;;;;5251397;27;20209;-71
2024/04/19 06:40:49;;;;;;;1.40;0.80;;;5.90;99.90;;;;;;5223960;27;20516;-71
2024/04/19 06:43:16;;;;;;;1.60;1.20;;;6.00;99.90;;;;;;5271859;27;20269;-71
2024/04/19 06:45:42;;;;;;;1.23;0.70;;;6.10;99.90;;;;;;5220555;27;20277;-72
2024/04/19 06:48:07;;;;;;;1.43;1.00;;;6.00;99.90;;;;;;5218098;27;20466;-72
2024/04/19 06:50:33;;;;;;;1.30;0.80;;;6.10;99.90;;;;;;5246749;27;20224;-73
2024/04/19 06:52:59;;;;;;;1.03;0.60;;;6.30;99.90;;;;;;5255553;27;20521;-71
2024/04/19 06:55:24;;;;;;;1.00;0.70;;;6.40;99.90;;;;;;5254344;27;20259;-74
2024/04/19 06:57:50;;;;;;;1.23;0.80;;;6.30;99.90;;;;;;5254187;27;20233;-76
2024/04/19 07:00:16;;;;;;;1.43;1.00;;;6.40;99.90;;;;;;5260045;27;20233;-70
2024/04/19 07:02:41;;;;;;;1.53;0.80;;;6.50;99.90;;;;;;5259665;27;20220;-73
2024/04/19 07:05:07;;;;;;;1.73;1.00;;;6.60;99.90;;;;;;5257872;27;20271;-71
2024/04/19 07:07:32;;;;;;;1.87;1.00;;;6.60;99.90;;;;;;5228561;27;20267;-72
2024/04/19 07:09:58;;;;;;;1.30;0.90;;;6.70;99.90;;;;;;5229819;27;20233;-70
2024/04/19 07:12:24;;;;;;;1.47;1.20;;;6.70;99.90;;;;;;5258594;27;20228;-70
2024/04/19 07:14:49;;;;;;;1.60;1.10;;;6.70;99.90;;;;;;5252396;27;20241;-72
2024/04/19 07:17:15;;;;;;;1.00;0.80;;;6.70;99.90;;;;;;5253531;27;20233;-69
2024/04/19 07:19:40;;;;;;;1.57;1.00;;;6.70;99.90;;;;;;5224004;27;20648;-70
2024/04/19 07:22:06;;;;;;;1.47;1.17;;;6.80;99.90;;;;;;5254866;27;20720;-71
2024/04/19 07:24:32;;;;;;;1.93;1.20;;;6.80;99.90;;;;;;5285581;27;20204;-72
2024/04/19 07:26:57;;;;;;;1.70;1.43;;;6.90;99.90;;;;;;5251912;27;20244;-70
2024/04/19 07:29:23;;;;;;;1.97;1.40;;;6.90;99.90;;;;;;5252481;27;20510;-71
2024/04/19 07:31:48;;;;;;;3.13;1.30;;;6.90;99.90;;;;;;5254272;27;20283;-72
2024/04/19 07:34:14;;;;;;;2.10;1.47;;;6.80;99.90;;;;;;5224920;27;20209;-71
2024/04/19 07:36:40;;;;;;;2.47;2.07;;;;;;;;;;5253916;27;20291;-74
2024/04/19 07:39:06;;;;;;;2.47;1.90;;;6.90;99.90;;;;;;5200705;27;20229;-72
2024/04/19 07:41:32;;;;;;;3.17;1.43;;;7.00;99.90;;;;;;5229438;27;20585;-75
2024/04/19 07:43:59;;;;;;;2.17;1.50;;;7.10;99.90;;;;;;5255487;27;20468;-72
2024/04/19 07:46:24;;;;;;;1.97;1.23;;;7.20;99.90;;;;;;5254242;27;20233;-72
2024/04/19 07:48:50;;;;;;;2.17;1.60;;;7.30;99.90;;;;;;5254552;27;20879;-69
2024/04/19 07:51:15;;;;;;;1.57;1.17;;;7.40;99.90;;;;;;5225599;27;20280;-72
2024/04/19 07:53:42;;;;;;;1.30;1.17;;;7.30;99.90;;;;;;5254611;27;20240;-73
2024/04/19 07:56:07;;;;;;;2.40;0.97;;;7.40;99.90;;;;;;5253272;27;20220;-72
2024/04/19 07:58:33;;;;;;;1.80;1.27;;;7.40;99.90;;;;;;5194507;27;20517;-72
2024/04/19 08:00:59;;;;;;;2.00;1.20;;;7.40;99.90;;;;;;5255365;27;20506;-71
2024/04/19 08:03:24;;;;;;;2.10;1.60;;;7.30;99.90;;;;;;5225951;27;20243;-71
2024/04/19 08:05:53;;;;;;;2.10;1.73;;;7.30;99.90;;;;;;5253537;27;20224;-70
2024/04/19 08:08:18;;;;;;;2.40;1.63;;;7.40;99.90;;;;;;5254215;27;20251;-71
2024/04/19 08:10:45;;;;;;;2.80;1.70;;;7.40;99.90;;;;;;5252926;27;20469;-70
2024/04/19 08:13:11;;;;;;;3.03;1.30;;;7.40;99.90;;;;;;5252907;27;20312;-69
2024/04/19 08:15:36;;;;;;;2.93;1.77;;;7.50;99.90;;;;;;5251919;27;20468;-73
2024/04/19 08:18:02;;;;;;;2.27;1.43;;;7.50;99.90;;;;;;5223087;27;20279;-72
2024/04/19 08:20:28;;;;;;;2.37;1.90;;;7.50;99.90;;;;;;5253934;27;20236;-70
2024/04/19 08:22:53;;;;;;;2.10;1.80;;;7.60;99.90;;;;;;5256809;27;20241;-70
2024/04/19 08:25:19;;;;;;;2.50;1.93;;;7.60;99.90;;;;;;5253998;27;20225;-72
2024/04/19 08:27:45;;;;;;;3.47;2.20;;;7.60;99.90;;;;;;5274973;27;20307;-72
2024/04/19 08:30:13;;;;;;;3.23;2.07;;;7.70;99.90;;;;;;5252573;27;20240;-71
2024/04/19 08:32:39;;;;;;;3.40;2.20;;;7.80;99.90;;;;;;5255472;27;20232;-71
2024/04/19 08:35:05;;;;;;;4.07;2.27;;;7.80;99.90;;;;;;5226512;27;20520;-73
2024/04/19 08:37:33;;;;;;;3.63;2.20;;;7.90;99.90;;;;;;5197747;27;20313;-72
2024/04/19 08:39:59;;;;;;;4.70;2.50;;;7.90;99.90;;;;;;5254623;27;20217;-74
2024/04/19 08:42:25;;;;;;;4.20;2.70;;;8.00;99.90;;;;;;5245189;27;20555;-75
2024/04/19 08:44:51;;;;;;;2.73;2.43;;;8.10;99.90;;;;;;5255977;27;20224;-71
2024/04/19 08:47:18;;;;;;;3.53;2.57;;;8.20;99.90;;;;;;5226237;27;20749;-73
2024/04/19 08:49:45;;;;;;;4.90;3.03;;;8.20;99.90;;;;;;5254780;27;20501;-73
2024/04/19 08:52:11;;;;;;;4.70;2.90;;;8.20;99.90;;;;;;5226708;27;20565;-74
2024/04/19 08:54:37;;;;;;;7.00;4.00;;;8.30;99.90;;;;;;5254549;27;20554;-72
2024/04/19 08:57:06;;;;;;;4.00;3.20;;;8.30;99.90;;;;;;5211069;27;20534;-71
2024/04/19 08:59:32;;;;;;;4.87;3.63;;;8.40;99.90;;;;;;5216432;27;21057;-71
2024/04/19 09:01:58;;;;;;;5.50;3.87;;;8.50;99.90;;;;;;5254663;27;20460;-70
2024/04/19 09:04:24;;;;;;;5.37;3.80;;;8.50;99.90;;;;;;5251063;27;20460;-72
2024/04/19 09:06:49;;;;;;;7.93;5.70;;;8.60;99.90;;;;;;5253032;27;20233;-72
2024/04/19 09:09:15;;;;;;;5.97;5.03;;;8.70;99.90;;;;;;5225080;27;20288;-72
2024/04/19 09:11:41;;;;;;;7.53;6.10;;;8.70;99.90;;;;;;5263771;27;20971;-72
2024/04/19 09:14:07;;;;;;;10.03;5.30;;;8.70;99.90;;;;;;5235835;27;20517;-74
2024/04/19 09:16:33;;;;;;;6.83;5.00;;;8.60;99.90;;;;;;5192193;27;20234;-72
2024/04/19 09:18:58;;;;;;;6.67;4.93;;;8.60;99.90;;;;;;5199384;27;20291;-70
2024/04/19 09:21:27;;;;;;;8.33;5.60;;;8.80;99.90;;;;;;5194953;27;20467;-73
2024/04/19 09:23:52;;;;;;;7.33;5.40;;;8.90;99.90;;;;;;5191795;27;20219;-72
2024/04/19 09:26:19;;;;;;;8.30;5.87;;;8.90;99.90;;;;;;5172232;27;20612;-73
2024/04/19 09:28:45;;;;;;;7.80;6.00;;;8.90;99.90;;;;;;5195831;27;20286;-72
2024/04/19 09:31:10;;;;;;;6.80;5.57;;;8.90;99.90;;;;;;5194017;27;20606;-73
2024/04/19 09:33:41;;;;;;;8.50;5.90;;;8.90;99.90;;;;;;5223533;27;20226;-71
2024/04/19 09:36:07;;;;;;;7.80;6.73;;;9.00;99.90;;;;;;5192275;27;20223;-75
2024/04/19 09:38:37;;;;;;;7.37;6.13;;;9.10;99.90;;;;;;5193810;27;20504;-75
2024/04/19 09:41:05;;;;;;;9.73;6.37;;;9.10;99.90;;;;;;5167355;27;20813;-70
2024/04/19 09:43:36;;;;;;;8.43;6.60;;;9.00;99.90;;;;;;5221823;27;20526;-73
2024/04/19 09:46:03;;;;;;;10.70;6.60;;;9.00;99.90;;;;;;5173128;27;20470;-74
2024/04/19 09:48:35;;;;;;;9.83;6.60;;;8.90;99.90;;;;;;5134676;27;20530;-73
2024/04/19 09:51:05;;;;;;;10.50;7.73;;;8.90;99.90;;;;;;5221071;27;20465;-71
2024/04/19 09:53:33;;;;;;;10.60;7.00;;;9.00;99.90;;;;;;5219682;27;20481;-71
2024/04/19 09:56:24;;;;;;;7.60;6.17;;;9.00;99.90;;;;;;5191475;27;20954;-72
2024/04/19 09:58:51;;;;;;;7.67;6.20;;;9.10;99.90;;;;;;5217572;27;21175;-74
2024/04/19 10:01:18;;;;;;;8.60;7.40;;;9.30;99.90;;;;;;5205174;27;20471;-75
2024/04/19 10:03:46;;;;;;;7.17;5.87;;;9.40;99.90;;;;;;5187681;27;20451;-73
2024/04/19 10:06:13;;;;;;;19.83;9.50;;;9.50;99.90;;;;;;5160148;27;20567;-75
2024/04/19 10:08:39;;;;;;;12.83;7.37;;;9.60;99.90;;;;;;5187250;27;20966;-72
2024/04/19 10:11:05;;;;;;;15.40;9.27;;;9.60;99.90;;;;;;5179555;27;20518;-74
2024/04/19 10:13:31;;;;;;;10.77;7.63;;;9.60;99.90;;;;;;5217538;27;20469;-74
2024/04/19 10:15:58;;;;;;;11.47;8.83;;;9.80;99.90;;;;;;5253436;27;20561;-74
2024/04/19 10:18:24;;;;;;;13.67;9.93;;;9.80;99.90;;;;;;5258567;27;20271;-73
2024/04/19 10:20:51;;;;;;;13.90;7.53;;;9.90;99.90;;;;;;5257848;27;20538;-75
2024/04/19 10:23:17;;;;;;;8.27;7.47;;;9.80;99.90;;;;;;5258970;27;20448;-76
2024/04/19 10:25:46;;;;;;;7.80;6.93;;;9.80;99.90;;;;;;5258685;27;20563;-75
2024/04/19 10:28:12;;;;;;;7.90;6.90;;;9.80;99.90;;;;;;5257517;27;20793;-73
2024/04/19 10:30:41;;;;;;;9.47;8.20;;;9.90;99.90;;;;;;5229222;27;20476;-72
2024/04/19 10:33:09;;;;;;;9.73;8.73;;;9.90;99.90;;;;;;5230482;27;20228;-74
2024/04/19 10:35:44;;;;;;;12.90;8.63;;;9.80;99.90;;;;;;5229411;27;20504;-74
2024/04/19 10:38:11;;;;;;;9.70;8.70;;;9.70;99.90;;;;;;5258268;27;20519;-74
2024/04/19 10:40:37;;;;;;;13.43;9.27;;;9.50;99.90;;;;;;5257966;27;20586;-74
2024/04/19 10:43:07;;;;;;;8.70;7.80;;;9.50;99.90;;;;;;5252381;27;20476;-74
2024/04/19 10:45:34;;;;;;;11.53;8.83;;;9.50;99.90;;;;;;5229568;27;20229;-73
2024/04/19 10:48:01;;;;;;;10.10;8.07;;;9.40;99.90;;;;;;5228393;27;20529;-75
2024/04/19 10:50:30;;;;;;;9.77;8.77;;;9.30;99.90;;;;;;5232380;27;20464;-73
2024/04/19 10:52:57;;;;;;;13.03;9.60;;;9.30;99.90;;;;;;5232118;27;20449;-75
2024/04/19 10:55:27;;;;;;;12.77;10.03;;;9.30;99.90;;;;;;5196460;27;20466;-72
2024/04/19 10:57:53;;;;;;;11.20;8.90;;;9.40;99.90;;;;;;5258360;27;20551;-73
2024/04/19 11:00:19;;;;;;;14.07;8.50;;;9.40;99.90;;;;;;5261043;27;20796;-74
2024/04/19 11:02:45;;;;;;;18.40;9.20;;;9.40;99.90;;;;;;5223519;27;20537;-74
2024/04/19 11:05:11;;;;;;;10.20;7.97;;;9.30;99.90;;;;;;5258827;27;20267;-74
2024/04/19 11:07:38;;;;;;;10.50;7.90;;;9.30;99.90;;;;;;5258563;27;20298;-75
2024/04/19 11:10:04;;;;;;;8.20;6.37;;;9.10;99.90;;;;;;5258033;27;20456;-74
2024/04/19 11:12:30;;;;;;;7.70;6.20;;;9.00;99.90;;;;;;5259263;27;20507;-73
2024/04/19 11:14:57;;;;;;;12.17;6.80;;;9.00;99.90;;;;;;5241891;27;20234;-73
2024/04/19 11:17:23;;;;;;;7.23;5.40;;;8.90;99.90;;;;;;5226025;27;20242;-71
2024/04/19 11:19:49;;;;;;;9.07;5.87;;;8.90;99.90;;;;;;5223264;27;20929;-72
2024/04/19 11:22:15;;;;;;;7.03;6.00;;;8.80;99.90;;;;;;5220196;27;20527;-74
2024/04/19 11:24:40;;;;;;;8.43;5.60;;;8.80;99.90;;;;;;5177607;27;20226;-74
2024/04/19 11:27:07;;;;;;;8.90;5.10;;;8.70;99.90;;;;;;5224172;27;20517;-75
2024/04/19 11:29:33;;;;;;;8.60;5.80;;;8.70;99.90;;;;;;5222933;27;20222;-74
2024/04/19 11:32:05;;;;;;;12.00;6.10;;;8.70;99.90;;;;;;5225499;27;20514;-73
2024/04/19 11:34:31;;;;;;;6.43;4.40;;;8.80;99.90;;;;;;5196452;27;21065;-74
2024/04/19 11:37:04;;;;;;;6.23;5.20;;;8.80;99.90;;;;;;5222054;27;20486;-74
2024/04/19 11:39:30;;;;;;;6.10;4.60;;;8.80;99.90;;;;;;5168872;27;20454;-72
2024/04/19 11:41:56;;;;;;;6.47;4.67;;;8.80;99.90;;;;;;5224123;27;21015;-74
2024/04/19 11:44:22;;;;;;;5.33;3.50;;;8.60;99.90;;;;;;5166508;27;20471;-73
2024/04/19 11:46:48;;;;;;;9.70;3.83;;;8.40;99.90;;;;;;5227579;27;20526;-74
2024/04/19 11:49:14;;;;;;;3.50;2.63;;;8.30;99.90;;;;;;5224565;27;20226;-74
2024/04/19 11:51:47;;;;;;;2.83;2.53;;;8.10;99.90;;;;;;5162077;27;20262;-74
2024/04/19 11:54:15;;;;;;;2.20;1.97;;;7.90;99.90;;;;;;5194694;27;20819;-74
2024/04/19 11:56:41;;;;;;;2.47;1.70;;;7.80;99.90;;;;;;5225827;27;20470;-74
2024/04/19 11:59:06;;;;;;;2.20;1.60;;;7.70;99.90;;;;;;5171689;27;20514;-78
2024/04/19 12:01:32;;;;;;;4.40;1.97;;;7.70;99.90;;;;;;5200280;27;20257;-77
2024/04/19 12:03:58;;;;;;;1.97;1.70;;;7.80;99.90;;;;;;5178177;27;20250;-76
2024/04/19 12:06:24;;;;;;;2.10;1.50;;;8.00;99.90;;;;;;5227778;27;20229;-78
2024/04/19 12:08:50;;;;;;;2.37;1.80;;;8.10;99.90;;;;;;5230499;27;20214;-79
2024/04/19 12:11:16;;;;;;;4.40;2.33;;;8.30;99.90;;;;;;5173770;27;20450;-76
2024/04/19 12:13:47;;;;;;;3.73;2.50;;;8.50;99.90;;;;;;5227377;27;20766;-78
2024/04/19 12:16:13;;;;;;;2.50;2.23;;;8.50;99.90;;;;;;5201355;27;20468;-75
2024/04/19 12:18:39;;;;;;;7.70;2.90;;;8.50;99.90;;;;;;5184406;27;20513;-78
2024/04/19 12:21:05;;;;;;;3.97;3.07;;;8.50;99.90;;;;;;5195693;27;20210;-78
2024/04/19 12:23:31;;;;;;;3.80;2.93;;;8.60;99.90;;;;;;5227963;27;20249;-78
2024/04/19 12:25:56;;;;;;;4.23;2.80;;;8.70;99.90;;;;;;5198527;27;20514;-78
2024/04/19 12:28:24;;;;;;;6.27;3.80;;;8.80;99.90;;;;;;5199116;27;20515;-79
2024/04/19 12:30:54;;;;;;;3.30;2.47;;;8.80;99.90;;;;;;5185717;27;20232;-78
2024/04/19 12:33:21;;;;;;;4.87;3.40;;;8.80;99.90;;;;;;5232781;27;20546;-78
2024/04/19 12:35:47;;;;;;;3.87;3.00;;;8.90;99.90;;;;;;5229540;27;20899;-76
2024/04/19 12:38:13;;;;;;;3.07;2.77;;;8.90;99.90;;;;;;5230477;27;20650;-76
2024/04/19 12:40:39;;;;;;;4.60;2.60;;;9.00;99.90;;;;;;5200949;27;20474;-77
2024/04/19 12:43:06;;;;;;;1.87;1.77;;;9.00;99.90;;;;;;5209249;27;20584;-78
2024/04/19 12:45:32;;;;;;;2.43;1.77;;;9.00;99.90;;;;;;5201902;27;20472;-78
2024/04/19 12:48:06;;;;;;;2.50;1.60;;;9.10;99.90;;;;;;5203390;27;20515;-77
2024/04/19 12:50:35;;;;;;;3.17;1.80;;;9.20;99.90;;;;;;5229444;27;20248;-75
2024/04/19 12:53:03;;;;;;;2.00;1.80;;;9.30;99.90;;;;;;5257519;27;20539;-76
2024/04/19 12:55:33;;;;;;;3.57;2.07;;;9.30;99.90;;;;;;5231102;27;20461;-80
2024/04/19 12:57:59;;;;;;;1.90;1.57;;;9.20;99.90;;;;;;5203300;27;20532;-78